createdAt,value
2017-11-14T00:01:57.929Z,21.13
2017-11-14T00:04:25.051Z,19.17
2017-11-14T00:06:51.438Z,20.13
2017-11-14T00:09:17.824Z,30.37
2017-11-14T00:11:44.203Z,22.57
2017-11-14T00:14:10.581Z,19.83
2017-11-14T00:16:36.998Z,20.70
2017-11-14T00:19:03.413Z,21.77
2017-11-14T00:21:29.809Z,23.40
2017-11-14T00:23:57.101Z,28.93
2017-11-14T00:26:23.514Z,25.03
2017-11-14T00:28:49.942Z,25.13
2017-11-14T00:31:16.343Z,22.47
2017-11-14T00:33:42.745Z,23.77
2017-11-14T00:36:09.118Z,27.07
2017-11-14T00:38:36.259Z,24.97
2017-11-14T00:41:02.653Z,24.83
2017-11-14T00:43:29.083Z,24.97
2017-11-14T00:45:55.488Z,22.23
2017-11-14T00:48:21.879Z,25.00
2017-11-14T00:50:49.127Z,31.47
2017-11-14T00:53:15.527Z,26.87
2017-11-14T00:55:41.905Z,28.83
2017-11-14T00:58:08.337Z,22.30
2017-11-14T01:00:34.730Z,23.07
2017-11-14T01:03:01.135Z,24.50
2017-11-14T01:05:27.588Z,19.67
2017-11-14T01:07:53.994Z,19.13
2017-11-14T01:10:21.117Z,21.87
2017-11-14T01:12:47.489Z,20.77
2017-11-14T01:15:13.938Z,23.47
2017-11-14T01:17:40.320Z,24.50
2017-11-14T01:20:07.456Z,23.47
2017-11-14T01:22:34.591Z,24.00
2017-11-14T01:25:00.975Z,22.70
2017-11-14T01:27:27.370Z,30.30
2017-11-14T01:29:53.764Z,23.93
2017-11-14T01:32:20.168Z,24.07
2017-11-14T01:34:46.621Z,22.83
2017-11-14T01:37:13.038Z,30.53
2017-11-14T01:39:39.436Z,24.77
2017-11-14T01:42:05.850Z,28.30
2017-11-14T01:44:32.952Z,25.70
2017-11-14T01:46:59.373Z,24.70
2017-11-14T01:49:26.502Z,25.50
2017-11-14T01:51:52.880Z,22.17
2017-11-14T01:54:19.289Z,27.53
2017-11-14T01:56:46.419Z,25.57
2017-11-14T01:59:13.548Z,31.83
2017-11-14T02:01:39.943Z,23.90
2017-11-14T02:04:06.386Z,27.00
2017-11-14T02:06:32.824Z,28.47
2017-11-14T02:08:59.268Z,27.87
2017-11-14T02:11:25.690Z,26.37
2017-11-14T02:13:52.099Z,26.57
2017-11-14T02:16:18.515Z,33.80
2017-11-14T02:18:44.961Z,29.23
2017-11-14T02:21:11.390Z,26.07
2017-11-14T02:23:37.817Z,24.70
2017-11-14T02:26:04.246Z,27.70
2017-11-14T02:28:30.665Z,31.57
2017-11-14T02:30:57.858Z,26.37
2017-11-14T02:33:24.290Z,29.13
2017-11-14T02:35:50.849Z,24.90
2017-11-14T02:38:17.291Z,27.33
2017-11-14T02:40:43.735Z,23.23
2017-11-14T02:43:10.918Z,27.00
2017-11-14T02:45:37.372Z,28.20
2017-11-14T02:48:03.811Z,26.10
2017-11-14T02:50:30.237Z,23.13
2017-11-14T02:52:56.679Z,31.00
2017-11-14T02:55:23.135Z,33.97
2017-11-14T02:57:49.528Z,32.30
2017-11-14T03:00:15.980Z,29.77
2017-11-14T03:02:42.376Z,33.80
2017-11-14T03:05:08.795Z,28.60
2017-11-14T03:07:35.963Z,28.07
2017-11-14T03:10:02.397Z,26.70
2017-11-14T03:12:28.844Z,30.10
2017-11-14T03:14:55.247Z,37.30
2017-11-14T03:17:22.429Z,33.40
2017-11-14T03:19:48.904Z,29.97
2017-11-14T03:22:15.312Z,37.10
2017-11-14T03:24:41.732Z,31.23
2017-11-14T03:27:08.117Z,31.07
2017-11-14T03:29:35.271Z,32.70
2017-11-14T03:32:02.456Z,31.80
2017-11-14T03:34:28.871Z,26.13
2017-11-14T03:36:55.325Z,34.63
2017-11-14T03:39:21.743Z,24.40
2017-11-14T03:41:48.200Z,30.00
2017-11-14T03:44:14.634Z,28.00
2017-11-14T03:46:41.037Z,31.63
2017-11-14T03:49:07.474Z,25.17
2017-11-14T03:51:33.896Z,28.80
2017-11-14T03:54:01.052Z,35.93
2017-11-14T03:56:27.474Z,26.30
2017-11-14T03:58:54.619Z,29.27
2017-11-14T04:01:21.744Z,28.20
2017-11-14T04:03:48.160Z,30.90
2017-11-14T04:06:14.573Z,29.80
2017-11-14T04:08:40.978Z,31.37
2017-11-14T04:11:08.169Z,46.70
2017-11-14T04:13:34.615Z,31.53
2017-11-14T04:16:01.026Z,31.40
2017-11-14T04:18:27.416Z,30.73
2017-11-14T04:20:54.537Z,28.87
2017-11-14T04:23:20.943Z,33.07
2017-11-14T04:25:47.329Z,34.10
2017-11-14T04:28:13.777Z,34.50
2017-11-14T04:30:40.167Z,34.03
2017-11-14T04:33:06.561Z,31.47
2017-11-14T04:35:33.685Z,38.13
2017-11-14T04:38:00.085Z,30.73
2017-11-14T04:40:26.483Z,38.23
2017-11-14T04:42:52.929Z,30.83
2017-11-14T04:45:19.342Z,35.30
2017-11-14T04:47:45.767Z,32.93
2017-11-14T04:50:12.184Z,30.87
2017-11-14T04:52:38.639Z,33.90
2017-11-14T04:55:05.100Z,35.10
2017-11-14T04:57:31.483Z,35.87
2017-11-14T04:59:57.897Z,36.07
2017-11-14T05:02:25.020Z,43.47
2017-11-14T05:04:51.421Z,37.00
2017-11-14T05:07:17.826Z,27.90
2017-11-14T05:09:44.221Z,34.13
2017-11-14T05:12:12.105Z,29.47
2017-11-14T05:14:39.244Z,30.53
2017-11-14T05:17:07.105Z,29.13
2017-11-14T05:19:33.501Z,30.17
2017-11-14T05:21:59.888Z,29.50
2017-11-14T05:24:27.020Z,30.60
2017-11-14T05:26:53.409Z,27.30
2017-11-14T05:29:19.815Z,30.70
2017-11-14T05:31:46.247Z,32.60
2017-11-14T05:34:12.680Z,31.63
2017-11-14T05:36:39.083Z,28.90
2017-11-14T05:39:06.241Z,29.93
2017-11-14T05:41:32.627Z,24.90
2017-11-14T05:43:59.015Z,30.60
2017-11-14T05:46:26.181Z,31.87
2017-11-14T05:48:52.583Z,31.37
2017-11-14T05:51:19.726Z,36.80
2017-11-14T05:53:46.902Z,25.27
2017-11-14T05:56:13.349Z,30.17
2017-11-14T05:58:39.748Z,27.90
2017-11-14T06:01:06.141Z,25.00
2017-11-14T06:03:32.597Z,33.83
2017-11-14T06:05:58.980Z,24.40
2017-11-14T06:08:25.440Z,33.37
2017-11-14T06:10:51.964Z,29.67
2017-11-14T06:13:18.381Z,37.73
2017-11-14T06:15:44.813Z,30.83
2017-11-14T06:18:11.204Z,28.67
2017-11-14T06:20:38.373Z,31.03
2017-11-14T06:23:04.767Z,30.03
2017-11-14T06:25:31.157Z,32.10
2017-11-14T06:27:57.536Z,30.33
2017-11-14T06:30:23.969Z,30.37
2017-11-14T06:32:50.404Z,26.67
2017-11-14T06:35:16.817Z,29.07
2017-11-14T06:37:43.235Z,27.83
2017-11-14T06:40:09.679Z,27.53
2017-11-14T06:42:36.122Z,25.63
2017-11-14T06:45:04.052Z,33.60
2017-11-14T06:47:30.445Z,30.60
2017-11-14T06:49:57.640Z,31.73
2017-11-14T06:52:24.037Z,36.23
2017-11-14T06:54:51.201Z,36.87
2017-11-14T06:57:18.335Z,33.57
2017-11-14T06:59:45.529Z,39.83
2017-11-14T07:02:11.958Z,27.83
2017-11-14T07:04:38.379Z,28.23
2017-11-14T07:07:04.808Z,29.40
2017-11-14T07:09:31.220Z,28.90
2017-11-14T07:11:58.361Z,30.90
2017-11-14T07:14:25.568Z,36.37
2017-11-14T07:16:51.999Z,28.17
2017-11-14T07:19:18.373Z,31.83
2017-11-14T07:21:45.534Z,30.97
2017-11-14T07:24:12.688Z,23.30
2017-11-14T07:26:39.823Z,26.70
2017-11-14T07:29:06.256Z,28.27
2017-11-14T07:31:32.664Z,27.63
2017-11-14T07:33:59.072Z,24.90
2017-11-14T07:36:25.454Z,23.47
2017-11-14T07:38:52.584Z,26.17
2017-11-14T07:41:18.980Z,24.57
2017-11-14T07:43:45.366Z,25.77
2017-11-14T07:46:11.768Z,28.07
2017-11-14T07:48:38.162Z,26.10
2017-11-14T07:51:04.548Z,26.60
2017-11-14T07:53:30.941Z,37.43
2017-11-14T07:55:57.327Z,24.30
2017-11-14T07:58:24.458Z,22.93
2017-11-14T08:00:50.844Z,22.40
2017-11-14T08:03:17.300Z,28.40
2017-11-14T08:05:43.765Z,24.30
2017-11-14T08:08:10.934Z,20.90
2017-11-14T08:10:38.112Z,17.77
2017-11-14T08:13:04.523Z,21.63
2017-11-14T08:15:30.980Z,15.23
2017-11-14T08:17:58.089Z,19.07
2017-11-14T08:20:25.224Z,20.10
2017-11-14T08:22:51.599Z,18.60
2017-11-14T08:25:23.999Z,24.37
2017-11-14T08:27:50.386Z,16.93
2017-11-14T08:30:16.773Z,18.93
2017-11-14T08:32:43.253Z,18.03
2017-11-14T08:35:09.688Z,20.10
2017-11-14T08:37:36.876Z,18.73
2017-11-14T08:40:03.299Z,23.27
2017-11-14T08:42:29.723Z,24.23
2017-11-14T08:44:56.129Z,15.30
2017-11-14T08:47:23.287Z,18.00
2017-11-14T08:49:50.433Z,19.40
2017-11-14T08:52:17.607Z,17.13
2017-11-14T08:54:44.008Z,15.50
2017-11-14T08:57:10.437Z,15.33
2017-11-14T08:59:37.584Z,15.33
2017-11-14T09:02:05.065Z,19.93
2017-11-14T09:04:31.490Z,15.90
2017-11-14T09:06:58.668Z,22.17
2017-11-14T09:09:25.131Z,14.80
2017-11-14T09:11:53.076Z,15.30
2017-11-14T09:14:19.593Z,13.80
2017-11-14T09:16:46.889Z,14.47
2017-11-14T09:19:14.849Z,20.43
2017-11-14T09:21:42.074Z,16.10
2017-11-14T09:24:08.510Z,15.37
2017-11-14T09:26:34.977Z,12.07
2017-11-14T09:29:01.416Z,10.57
2017-11-14T09:31:29.342Z,12.53
2017-11-14T09:33:55.740Z,12.67
2017-11-14T09:36:22.514Z,18.43
2017-11-14T09:38:48.984Z,11.23
2017-11-14T09:41:15.445Z,6.60
2017-11-14T09:43:42.618Z,9.37
2017-11-14T09:46:09.820Z,8.83
2017-11-14T09:48:36.264Z,11.57
2017-11-14T09:51:02.720Z,9.70
2017-11-14T09:53:29.918Z,15.70
2017-11-14T09:55:56.370Z,10.33
2017-11-14T09:58:22.819Z,32.83
2017-11-14T10:00:49.240Z,12.43
2017-11-14T10:03:15.660Z,9.23
2017-11-14T10:05:42.143Z,8.67
2017-11-14T10:08:08.620Z,27.87
2017-11-14T10:10:35.046Z,6.37
2017-11-14T10:13:01.486Z,14.67
2017-11-14T10:15:27.932Z,10.70
2017-11-14T10:17:54.383Z,20.00
2017-11-14T10:20:22.392Z,6.63
2017-11-14T10:22:48.861Z,11.03
2017-11-14T10:25:15.294Z,5.47
2017-11-14T10:27:41.729Z,14.47
2017-11-14T10:30:08.176Z,11.60
2017-11-14T10:32:34.651Z,8.43
2017-11-14T10:35:01.833Z,16.80
2017-11-14T10:37:28.276Z,3.47
2017-11-14T10:39:56.243Z,5.00
2017-11-14T10:42:22.702Z,18.93
2017-11-14T10:44:49.867Z,6.73
2017-11-14T10:47:16.293Z,13.67
2017-11-14T10:49:43.485Z,12.53
2017-11-14T10:52:09.953Z,6.10
2017-11-14T10:54:36.414Z,5.83
2017-11-14T10:57:02.884Z,16.60
2017-11-14T10:59:29.336Z,2.60
2017-11-14T11:01:55.852Z,5.70
2017-11-14T11:04:22.299Z,17.90
2017-11-14T11:06:48.724Z,2.80
2017-11-14T11:09:15.196Z,20.67
2017-11-14T11:11:41.654Z,119.70
2017-11-14T11:14:08.822Z,13.00
2017-11-14T11:16:35.290Z,3.63
2017-11-14T11:19:01.743Z,84.60
2017-11-14T11:21:28.182Z,16.23
2017-11-14T11:23:55.397Z,15.70
2017-11-14T11:26:21.839Z,5.33
2017-11-14T11:28:48.288Z,8.00
2017-11-14T11:31:14.837Z,20.77
2017-11-14T11:33:41.273Z,7.70
2017-11-14T11:36:07.955Z,8.43
2017-11-14T11:38:34.394Z,3.23
2017-11-14T11:41:00.843Z,6.93
2017-11-14T11:43:27.288Z,23.17
2017-11-14T11:45:53.731Z,4.17
2017-11-14T11:48:20.239Z,8.17
2017-11-14T11:50:46.723Z,7.20
2017-11-14T11:53:13.905Z,5.17
2017-11-14T11:55:40.533Z,2.80
2017-11-14T11:58:07.745Z,74.97
2017-11-14T12:00:34.963Z,4.57
2017-11-14T12:03:01.412Z,12.57
2017-11-14T12:05:27.866Z,8.07
2017-11-14T12:07:55.092Z,3.03
2017-11-14T12:10:21.601Z,4.33
2017-11-14T12:12:48.053Z,3.10
2017-11-14T12:15:14.517Z,3.47
2017-11-14T12:17:42.445Z,3.73
2017-11-14T12:20:08.890Z,10.40
2017-11-14T12:22:35.353Z,5.90
2017-11-14T12:25:03.277Z,6.57
2017-11-14T12:27:29.695Z,7.70
2017-11-14T12:29:56.134Z,3.37
2017-11-14T12:32:22.588Z,4.00
2017-11-14T12:34:49.059Z,3.10
2017-11-14T12:37:15.581Z,5.30
2017-11-14T12:39:42.021Z,13.73
2017-11-14T12:42:08.472Z,4.47
2017-11-14T12:44:35.636Z,3.33
2017-11-14T12:47:02.768Z,4.47
2017-11-14T12:49:29.936Z,2.33
2017-11-14T12:51:57.116Z,3.43
2017-11-14T12:54:23.527Z,2.67
2017-11-14T12:56:50.717Z,3.50
2017-11-14T12:59:17.133Z,2.10
2017-11-14T13:01:44.018Z,5.90
2017-11-14T13:04:11.399Z,2.03
2017-11-14T13:06:39.370Z,4.10
2017-11-14T13:09:06.530Z,2.60
2017-11-14T13:11:32.984Z,6.50
2017-11-14T13:13:59.441Z,3.50
2017-11-14T13:16:25.837Z,3.60
2017-11-14T13:18:52.232Z,2.50
2017-11-14T13:21:19.405Z,2.40
2017-11-14T13:23:46.580Z,4.20
2017-11-14T13:26:13.006Z,6.90
2017-11-14T13:28:39.508Z,3.60
2017-11-14T13:31:06.686Z,6.10
2017-11-14T13:33:33.156Z,7.00
2017-11-14T13:35:59.581Z,2.40
2017-11-14T13:38:26.028Z,51.17
2017-11-14T13:40:52.457Z,1.87
2017-11-14T13:43:18.852Z,2.87
2017-11-14T13:45:45.236Z,2.10
2017-11-14T13:48:13.129Z,2.17
2017-11-14T13:50:40.336Z,3.63
2017-11-14T13:53:06.725Z,2.80
2017-11-14T13:55:33.727Z,4.10
2017-11-14T13:58:00.174Z,2.70
2017-11-14T14:00:26.591Z,17.13
2017-11-14T14:02:52.981Z,4.90
2017-11-14T14:05:19.561Z,3.37
2017-11-14T14:07:46.003Z,7.07
2017-11-14T14:10:13.895Z,9.77
2017-11-14T14:12:41.019Z,4.40
2017-11-14T14:15:07.447Z,10.40
2017-11-14T14:17:33.848Z,7.90
2017-11-14T14:20:01.061Z,5.80
2017-11-14T14:22:28.207Z,5.37
2017-11-14T14:24:55.330Z,3.97
2017-11-14T14:27:23.273Z,5.37
2017-11-14T14:29:49.639Z,7.60
2017-11-14T14:32:16.018Z,3.20
2017-11-14T14:34:42.412Z,3.67
2017-11-14T14:37:08.785Z,8.07
2017-11-14T14:39:36.046Z,8.80
2017-11-14T14:42:02.531Z,7.00
2017-11-14T14:44:29.704Z,3.87
2017-11-14T14:46:56.114Z,3.53
2017-11-14T14:49:23.229Z,16.10
2017-11-14T14:51:51.239Z,7.47
2017-11-14T14:54:17.629Z,4.63
2017-11-14T14:56:44.130Z,13.67
2017-11-14T14:59:10.527Z,9.33
2017-11-14T15:01:37.665Z,3.73
2017-11-14T15:04:04.069Z,22.00
2017-11-14T15:06:31.309Z,8.97
2017-11-14T15:08:57.819Z,8.77
2017-11-14T15:11:24.260Z,17.40
2017-11-14T15:13:50.682Z,9.87
2017-11-14T15:16:17.147Z,12.73
2017-11-14T15:18:43.580Z,13.87
2017-11-14T15:21:10.009Z,19.43
2017-11-14T15:23:37.144Z,13.03
2017-11-14T15:26:03.578Z,10.37
2017-11-14T15:28:30.008Z,19.83
2017-11-14T15:30:56.488Z,13.43
2017-11-14T15:33:23.676Z,40.97
2017-11-14T15:35:50.124Z,27.50
2017-11-14T15:38:16.553Z,32.47
2017-11-14T15:40:42.998Z,18.17
2017-11-14T15:43:09.466Z,15.13
2017-11-14T15:45:35.969Z,38.90
2017-11-14T15:48:02.406Z,113.77
2017-11-14T15:50:28.846Z,49.07
2017-11-14T15:52:55.329Z,42.90
2017-11-14T15:55:22.529Z,49.17
2017-11-14T15:57:48.970Z,60.13
2017-11-14T16:00:15.579Z,48.00
2017-11-14T16:02:42.152Z,170.90
2017-11-14T16:05:08.593Z,46.50
2017-11-14T16:07:35.029Z,40.07
2017-11-14T16:10:01.963Z,22.60
2017-11-14T16:12:28.409Z,21.30
2017-11-14T16:14:54.878Z,14.27
2017-11-14T16:17:21.336Z,159.10
2017-11-14T16:19:47.791Z,150.63
2017-11-14T16:22:14.221Z,80.03
2017-11-14T16:24:40.689Z,123.67
2017-11-14T16:27:07.926Z,36.63
2017-11-14T16:29:34.387Z,32.03
2017-11-14T16:32:01.580Z,24.00
2017-11-14T16:34:28.038Z,26.03
2017-11-14T16:36:54.472Z,21.57
2017-11-14T16:39:20.950Z,19.93
2017-11-14T16:41:47.426Z,27.80
2017-11-14T16:44:13.929Z,21.63
2017-11-14T16:46:40.375Z,33.23
2017-11-14T16:49:06.839Z,29.03
2017-11-14T16:51:33.289Z,26.93
2017-11-14T16:54:00.493Z,26.53
2017-11-14T16:56:26.953Z,16.07
2017-11-14T16:58:53.493Z,15.53
2017-11-14T17:01:19.925Z,19.33
2017-11-14T17:03:46.377Z,37.27
2017-11-14T17:06:12.916Z,94.50
2017-11-14T17:08:40.141Z,63.97
2017-11-14T17:11:06.657Z,29.23
2017-11-14T17:13:33.126Z,37.20
2017-11-14T17:16:00.330Z,32.07
2017-11-14T17:18:27.783Z,39.80
2017-11-14T17:20:54.227Z,35.93
2017-11-14T17:23:20.667Z,24.00
2017-11-14T17:25:47.080Z,26.27
2017-11-14T17:28:13.531Z,29.33
2017-11-14T17:30:40.759Z,28.90
2017-11-14T17:33:07.170Z,29.37
2017-11-14T17:35:34.289Z,23.30
2017-11-14T17:38:00.693Z,21.07
2017-11-14T17:40:27.085Z,17.53
2017-11-14T17:42:54.251Z,18.93
2017-11-14T17:45:20.672Z,17.10
2017-11-14T17:47:47.789Z,24.40
2017-11-14T17:50:14.184Z,23.60
2017-11-14T17:52:40.611Z,30.17
2017-11-14T17:55:07.118Z,19.03
2017-11-14T17:57:33.597Z,28.87
2017-11-14T18:00:00.044Z,24.70
2017-11-14T18:02:26.457Z,27.43
2017-11-14T18:04:52.857Z,30.53
2017-11-14T18:07:20.014Z,24.20
2017-11-14T18:09:46.452Z,30.07
2017-11-14T18:12:12.856Z,28.30
2017-11-14T18:14:40.032Z,31.17
2017-11-14T18:17:06.434Z,38.10
2017-11-14T18:19:33.664Z,44.07
2017-11-14T18:22:00.790Z,57.07
2017-11-14T18:24:27.191Z,30.40
2017-11-14T18:26:55.190Z,38.43
2017-11-14T18:29:23.982Z,45.80
2017-11-14T18:31:50.385Z,19.90
2017-11-14T18:34:16.884Z,21.30
2017-11-14T18:36:43.266Z,27.30
2017-11-14T18:39:09.661Z,51.33
2017-11-14T18:41:37.113Z,36.87
2017-11-14T18:44:03.524Z,34.37
2017-11-14T18:46:30.932Z,63.67
2017-11-14T18:48:57.557Z,36.97
2017-11-14T18:51:23.984Z,40.10
2017-11-14T18:53:51.134Z,41.90
2017-11-14T18:56:18.264Z,26.63
2017-11-14T18:58:44.686Z,28.97
2017-11-14T19:01:11.103Z,31.67
2017-11-14T19:03:37.489Z,31.67
2017-11-14T19:06:04.649Z,29.33
2017-11-14T19:08:31.082Z,29.20
2017-11-14T19:10:57.502Z,31.17
2017-11-14T19:13:23.942Z,29.33
2017-11-14T19:15:50.384Z,34.47
2017-11-14T19:18:16.837Z,38.07
2017-11-14T19:20:43.293Z,50.10
2017-11-14T19:23:09.676Z,39.50
2017-11-14T19:25:36.090Z,35.00
2017-11-14T19:28:03.241Z,30.50
2017-11-14T19:30:29.644Z,32.33
2017-11-14T19:32:56.025Z,34.67
2017-11-14T19:35:22.416Z,38.67
2017-11-14T19:37:48.820Z,32.80
2017-11-14T19:40:15.192Z,33.80
2017-11-14T19:42:42.349Z,36.37
2017-11-14T19:45:09.529Z,38.80
2017-11-14T19:47:35.933Z,62.17
2017-11-14T19:50:02.395Z,41.43
2017-11-14T19:52:28.839Z,43.27
2017-11-14T19:54:55.294Z,86.20
2017-11-14T19:57:21.711Z,41.07
2017-11-14T19:59:48.110Z,39.10
2017-11-14T20:02:14.554Z,53.47
2017-11-14T20:04:40.975Z,42.90
2017-11-14T20:07:08.503Z,37.83
2017-11-14T20:09:35.686Z,44.33
2017-11-14T20:12:02.163Z,60.27
2017-11-14T20:14:28.600Z,54.70
2017-11-14T20:16:55.101Z,54.77
2017-11-14T20:19:21.545Z,55.43
2017-11-14T20:21:48.005Z,63.43
2017-11-14T20:24:14.412Z,57.10
2017-11-14T20:26:40.833Z,34.20
2017-11-14T20:29:07.240Z,38.73
2017-11-14T20:31:33.655Z,31.80
2017-11-14T20:34:00.804Z,39.03
2017-11-14T20:36:27.940Z,43.63
2017-11-14T20:38:54.391Z,32.40
2017-11-14T20:41:20.768Z,43.33
2017-11-14T20:43:47.283Z,38.50
2017-11-14T20:46:13.684Z,42.63
2017-11-14T20:48:40.837Z,48.87
2017-11-14T20:51:07.978Z,52.97
2017-11-14T20:53:35.148Z,39.40
2017-11-14T20:56:02.315Z,41.57
2017-11-14T20:58:28.743Z,46.33
2017-11-14T21:00:55.239Z,39.13
2017-11-14T21:03:21.730Z,61.30
2017-11-14T21:05:48.120Z,57.10
2017-11-14T21:08:15.293Z,57.50
2017-11-14T21:10:41.729Z,72.00
2017-11-14T21:13:08.167Z,72.10
2017-11-14T21:15:34.565Z,63.37
2017-11-14T21:18:01.711Z,50.00
2017-11-14T21:20:28.138Z,46.53
2017-11-14T21:22:55.308Z,50.50
2017-11-14T21:25:22.441Z,42.77
2017-11-14T21:27:48.837Z,46.87
2017-11-14T21:30:15.223Z,62.13
2017-11-14T21:32:42.369Z,51.33
2017-11-14T21:35:09.498Z,48.10
2017-11-14T21:37:36.632Z,44.28
2017-11-14T21:40:03.103Z,48.93
2017-11-14T21:42:29.578Z,50.27
2017-11-14T21:44:55.974Z,41.10
2017-11-14T21:47:23.105Z,41.73
2017-11-14T21:49:50.262Z,46.23
2017-11-14T21:52:17.406Z,41.63
2017-11-14T21:54:44.552Z,41.77
2017-11-14T21:57:10.956Z,48.57
2017-11-14T21:59:37.356Z,43.50
2017-11-14T22:02:03.756Z,44.38
2017-11-14T22:04:30.915Z,41.53
2017-11-14T22:06:58.054Z,40.17
2017-11-14T22:09:25.168Z,50.83
2017-11-14T22:11:51.552Z,49.37
2017-11-14T22:14:17.951Z,47.40
2017-11-14T22:16:44.516Z,46.72
2017-11-14T22:19:10.907Z,42.60
2017-11-14T22:21:37.326Z,42.58
2017-11-14T22:24:03.733Z,39.25
2017-11-14T22:26:30.170Z,58.13
2017-11-14T22:28:56.634Z,50.33
2017-11-14T22:31:23.130Z,60.57
2017-11-14T22:33:49.703Z,52.50
2017-11-14T22:36:16.117Z,52.42
2017-11-14T22:38:42.683Z,57.08
2017-11-14T22:41:09.108Z,48.30
2017-11-14T22:43:35.540Z,48.27
2017-11-14T22:46:02.024Z,41.60
2017-11-14T22:48:28.426Z,43.00
2017-11-14T22:50:56.299Z,53.20
2017-11-14T22:53:22.680Z,46.87
2017-11-14T22:55:49.125Z,57.33
2017-11-14T22:58:15.567Z,48.42
2017-11-14T23:00:41.976Z,52.67
2017-11-14T23:03:08.397Z,65.77
2017-11-14T23:05:34.783Z,70.18
2017-11-14T23:08:01.178Z,62.33
2017-11-14T23:10:27.584Z,53.27
2017-11-14T23:12:53.981Z,58.17
2017-11-14T23:15:21.131Z,52.17
2017-11-14T23:17:47.524Z,43.47
2017-11-14T23:20:13.967Z,50.70
2017-11-14T23:22:40.368Z,44.40
2017-11-14T23:25:06.768Z,50.47
2017-11-14T23:27:33.911Z,46.73
2017-11-14T23:30:00.307Z,49.67
2017-11-14T23:32:26.684Z,51.33
2017-11-14T23:34:53.831Z,56.43
2017-11-14T23:37:20.965Z,43.90
2017-11-14T23:39:48.850Z,48.70
2017-11-14T23:42:16.017Z,46.93
2017-11-14T23:44:42.456Z,38.60
2017-11-14T23:47:08.888Z,45.73
2017-11-14T23:49:35.387Z,40.10
2017-11-14T23:52:01.816Z,49.60
2017-11-14T23:54:28.193Z,53.20
2017-11-14T23:56:54.566Z,48.53
2017-11-14T23:59:22.449Z,46.27
